Time;durP1;ratioP1;P1;durP2;ratioP2;P2;SDS_P1;SDS_P2;PMS_P1;PMS_P2;Temp;Humidity;BMP_temperature;BMP_pressure;BME280_temperature;BME280_humidity;BME280_pressure;Samples;Min_cycle;Max_cycle;Signal;HPM_P1;HPM_P2
2021/03/16 00:02:35;;;;;;;5.63;5.00;;;;;;;;;;5035449;28;20179;-81
2021/03/16 00:05:02;;;;;;;5.53;4.90;;;;;;;;;;5027765;28;20669;-81
2021/03/16 00:07:30;;;;;;;4.60;4.13;;;;;;;;;;5005747;28;20191;-81
2021/03/16 00:09:56;;;;;;;4.10;3.77;;;;;;;;;;5023230;28;20164;-81
2021/03/16 00:12:22;;;;;;;4.80;4.13;;;;;;;;;;5024615;28;20482;-81
2021/03/16 00:14:48;;;;;;;4.13;3.83;;;;;;;;;;5008798;28;20186;-82
2021/03/16 00:17:14;;;;;;;5.13;4.63;;;;;;;;;;5025759;28;20172;-82
2021/03/16 00:19:40;;;;;;;3.60;3.30;;;;;;;;;;5005862;28;20203;-82
2021/03/16 00:22:06;;;;;;;3.50;3.20;;;;;;;;;;5038313;28;20196;-82
2021/03/16 00:24:32;;;;;;;4.25;3.95;;;;;;;;;;5005989;28;20231;-82
2021/03/16 00:26:58;;;;;;;4.90;4.40;;;;;;;;;;5006228;28;20168;-82
2021/03/16 00:29:24;;;;;;;4.25;3.85;;;;;;;;;;5006689;28;20267;-82
2021/03/16 00:31:50;;;;;;;3.80;3.47;;;;;;;;;;5053310;23;20223;-83
2021/03/16 00:34:16;;;;;;;6.68;4.25;;;;;;;;;;5004715;28;20264;-82
2021/03/16 00:36:42;;;;;;;6.38;4.72;;;;;;;;;;5021426;28;20700;-80
2021/03/16 00:39:09;;;;;;;5.22;4.82;;;;;;;;;;5022014;28;20168;-81
2021/03/16 00:41:41;;;;;;;4.22;3.92;;;;;;;;;;5013274;28;20188;-82
2021/03/16 00:44:07;;;;;;;4.72;4.28;;;;;;;;;;5022676;28;20170;-82
2021/03/16 00:46:33;;;;;;;4.25;3.85;;;;;;;;;;5022131;28;20168;-81
2021/03/16 00:49:00;;;;;;;5.95;5.18;;;;;;;;;;5021044;28;20230;-82
2021/03/16 00:51:26;;;;;;;5.00;4.50;;;;;;;;;;5021181;28;20286;-82
2021/03/16 00:53:52;;;;;;;6.30;4.82;;;;;;;;;;5006646;28;20172;-82
2021/03/16 00:56:18;;;;;;;5.85;5.35;;;;;;;;;;5021783;28;20176;-83
2021/03/16 00:58:44;;;;;;;5.13;4.72;;;;;;;;;;5025134;28;20176;-82
2021/03/16 01:01:10;;;;;;;5.30;4.50;;;;;;;;;;5023068;28;20222;-81
2021/03/16 01:03:36;;;;;;;6.85;6.18;;;;;;;;;;5024873;28;20176;-81
2021/03/16 01:06:03;;;;;;;5.05;4.50;;;;;;;;;;5023436;28;20176;-82
2021/03/16 01:08:29;;;;;;;4.85;4.40;;;;;;;;;;5022546;28;20168;-81
2021/03/16 01:10:55;;;;;;;4.28;3.88;;;;;;;;;;5022248;28;20203;-81
2021/03/16 01:13:22;;;;;;;4.90;4.40;;;;;;;;;;5023031;28;20198;-81
2021/03/16 01:15:51;;;;;;;7.55;5.10;;;;;;;;;;5024352;28;20583;-82
2021/03/16 01:18:18;;;;;;;5.53;5.03;;;;;;;;;;5023313;28;20179;-82
2021/03/16 01:20:44;;;;;;;6.97;4.78;;;;;;;;;;5023299;28;20207;-81
2021/03/16 01:23:10;;;;;;;5.53;5.03;;;;;;;;;;5024168;28;20180;-83
2021/03/16 01:25:37;;;;;;;6.13;5.63;;;;;;;;;;5023557;28;20558;-82
2021/03/16 01:28:03;;;;;;;5.72;5.25;;;;;;;;;;5022126;28;20222;-83
2021/03/16 01:30:29;;;;;;;5.72;5.05;;;;;;;;;;5021690;28;20192;-84
2021/03/16 01:32:55;;;;;;;9.35;6.18;;;;;;;;;;5024941;28;20617;-83
2021/03/16 01:35:22;;;;;;;7.80;7.05;;;;;;;;;;5008129;28;20226;-82
2021/03/16 01:37:53;;;;;;;6.40;5.38;;;;;;;;;;5025207;28;20172;-83
2021/03/16 01:40:20;;;;;;;7.95;6.88;;;;;;;;;;5025467;28;20204;-83
2021/03/16 01:42:47;;;;;;;6.28;5.20;;;;;;;;;;5025605;28;20203;-83
2021/03/16 01:45:15;;;;;;;6.53;5.95;;;;;;;;;;5024650;28;20168;-83
2021/03/16 01:47:45;;;;;;;9.60;5.97;;;;;;;;;;5025068;28;20172;-82
2021/03/16 01:50:12;;;;;;;8.05;6.60;;;;;;;;;;5024502;28;20208;-82
2021/03/16 01:52:43;;;;;;;8.85;5.82;;;;;;;;;;5027446;28;20338;-83
2021/03/16 01:55:09;;;;;;;10.07;8.15;;;;;;;;;;5027823;28;20183;-81
2021/03/16 01:57:37;;;;;;;9.85;7.82;;;;;;;;;;5024960;28;20648;-82
2021/03/16 02:00:24;;;;;;;7.80;6.28;;;;;;;;;;5025338;28;20671;-81
2021/03/16 02:03:10;;;;;;;4.72;4.32;;;;;;;;;;5024955;28;20259;-80
2021/03/16 02:05:55;;;;;;;6.70;6.10;;;;;;;;;;5025378;28;20235;-82
2021/03/16 02:08:47;;;;;;;6.38;5.72;;;;;;;;;;5026517;28;20167;-81
2021/03/16 02:11:58;;;;;;;8.40;5.55;;;;;;;;;;5023333;28;20222;-80
2021/03/16 02:14:45;;;;;;;5.72;5.22;;;;;;;;;;5027455;28;20203;-81
2021/03/16 02:17:32;;;;;;;4.93;4.60;;;;;;;;;;5024788;28;20187;-82
2021/03/16 02:20:23;;;;;;;6.63;5.05;;;;;;;;;;5025633;28;20252;-81
2021/03/16 02:23:09;;;;;;;6.05;5.53;;;;;;;;;;5024400;28;20179;-79
2021/03/16 02:26:12;;;;;;;5.53;4.90;;;;;;;;;;5026420;28;20160;-83
2021/03/16 02:29:16;;;;;;;4.90;4.38;;;;;;;;;;5024769;28;20163;-82
2021/03/16 02:32:06;;;;;;;10.15;5.05;;;;;;;;;;5024172;28;20265;-82
2021/03/16 02:34:52;;;;;;;5.50;5.00;;;;;;;;;;5023629;28;20248;-83
2021/03/16 02:37:38;;;;;;;5.25;4.75;;;;;;;;;;5024910;28;20214;-82
2021/03/16 02:40:25;;;;;;;4.68;4.38;;;;;;;;;;5024998;28;20218;-82
2021/03/16 02:43:10;;;;;;;4.40;3.80;;;;;;;;;;5029930;28;20162;-82
2021/03/16 02:45:55;;;;;;;4.75;4.05;;;;;;;;;;5027694;28;20164;-83
2021/03/16 02:48:42;;;;;;;8.73;4.70;;;;;;;;;;5024445;28;20159;-81
2021/03/16 02:51:27;;;;;;;4.93;4.38;;;;;;;;;;5025378;28;20234;-80
2021/03/16 02:54:12;;;;;;;5.32;4.80;;;;;;;;;;5024903;28;20187;-82
2021/03/16 02:56:57;;;;;;;4.95;4.53;;;;;;;;;;5025180;28;20230;-82
2021/03/16 02:59:43;;;;;;;4.68;4.35;;;;;;;;;;5023289;28;20191;-81
2021/03/16 03:02:29;;;;;;;4.82;4.43;;;;;;;;;;5024928;28;20698;-83
2021/03/16 03:05:14;;;;;;;4.25;3.83;;;;;;;;;;5024994;28;20163;-83
2021/03/16 03:08:04;;;;;;;5.38;4.30;;;4.90;99.90;;;;;;5023635;28;20178;-82
2021/03/16 03:10:49;;;;;;;4.93;4.57;;;3.90;99.90;;;;;;5024570;28;20266;-81
2021/03/16 03:13:34;;;;;;;6.65;5.03;;;;;;;;;;5026209;28;20190;-82
2021/03/16 03:16:19;;;;;;;6.25;5.40;;;;;;;;;;5024377;28;20263;-81
2021/03/16 03:19:05;;;;;;;5.20;4.57;;;;;;;;;;5023311;28;20170;-82
2021/03/16 03:21:53;;;;;;;4.78;4.38;;;;;;;;;;5026171;28;20234;-83
2021/03/16 03:24:41;;;;;;;5.88;5.15;;;;;;;;;;5026838;28;20224;-83
2021/03/16 03:27:29;;;;;;;4.22;3.85;;;;;;;;;;5024640;28;20163;-82
2021/03/16 03:30:14;;;;;;;4.40;4.00;;;;;;;;;;5023903;28;20190;-84
2021/03/16 03:33:02;;;;;;;4.38;3.97;;;;;;;;;;5025355;28;20171;-82
2021/03/16 03:35:47;;;;;;;4.10;3.78;;;;;;;;;;5026242;28;20187;-82
2021/03/16 03:38:33;;;;;;;6.80;4.43;;;;;;;;;;5028327;28;20167;-82
2021/03/16 03:41:18;;;;;;;5.25;4.75;;;;;;;;;;5028282;28;20262;-84
2021/03/16 03:44:03;;;;;;;6.20;5.60;;;;;;;;;;5028407;28;20218;-79
2021/03/16 03:46:48;;;;;;;6.97;4.53;;;;;;;;;;5027258;28;20186;-83
2021/03/16 03:49:33;;;;;;;4.60;4.20;;;;;;;;;;5030705;28;20274;-83
2021/03/16 03:52:19;;;;;;;5.15;4.65;;;;;;;;;;5025932;28;20359;-83
2021/03/16 03:55:06;;;;;;;4.75;4.25;;;;;;;;;;5025736;28;20182;-82
2021/03/16 03:57:52;;;;;;;4.82;4.43;;;;;;;;;;5032465;28;20194;-81
2021/03/16 04:00:37;;;;;;;3.65;3.35;;;;;;;;;;5033063;28;20242;-82
2021/03/16 04:03:21;;;;;;;7.68;4.15;;;;;;;;;;5031288;28;20178;-81
2021/03/16 04:06:06;;;;;;;6.20;4.03;;;;;;;;;;5032760;28;20544;-83
2021/03/16 04:08:51;;;;;;;7.18;3.92;;;;;;;;;;5030004;28;20699;-82
2021/03/16 04:11:36;;;;;;;3.75;3.45;;;;;;;;;;5028020;28;20202;-83
2021/03/16 04:14:21;;;;;;;4.93;4.40;;;;;;;;;;5028677;28;20158;-83
2021/03/16 04:17:06;;;;;;;7.45;4.38;;;;;;;;;;5027536;28;20183;-82
2021/03/16 04:19:53;;;;;;;3.92;3.63;;;;;;;;;;5026444;28;20195;-82
2021/03/16 04:22:38;;;;;;;4.88;4.38;;;;;;;;;;5024575;28;20191;-82
2021/03/16 04:25:22;;;;;;;4.30;3.92;;;;;;;;;;5024377;28;20170;-82
2021/03/16 04:28:07;;;;;;;9.77;4.22;;;;;;;;;;5024121;28;20171;-81
2021/03/16 04:30:52;;;;;;;5.45;3.42;;;;;;;;;;5023522;28;20230;-82
2021/03/16 04:33:39;;;;;;;5.85;5.35;;;;;;;;;;5024596;28;20167;-81
2021/03/16 04:36:24;;;;;;;3.80;3.10;;;;;;;;;;5029386;28;20239;-82
2021/03/16 04:39:09;;;;;;;10.40;5.35;;;;;;;;;;5025977;28;20167;-83
2021/03/16 04:41:53;;;;;;;4.97;3.97;;;;;;;;;;5024567;28;20202;-80
2021/03/16 04:44:38;;;;;;;7.40;4.97;;;;;;;;;;5025006;28;20170;-82
2021/03/16 04:47:22;;;;;;;4.22;3.63;;;;;;;;;;5027745;28;20179;-81
2021/03/16 04:50:07;;;;;;;6.68;5.55;;;;;;;;;;5030061;28;20163;-79
2021/03/16 04:52:53;;;;;;;9.18;4.35;;;;;;;;;;5028586;28;20235;-81
2021/03/16 04:55:37;;;;;;;4.57;4.18;;;;;;;;;;5025428;28;20191;-82
2021/03/16 04:58:22;;;;;;;4.43;4.03;;;;;;;;;;5025493;28;20195;-80
2021/03/16 05:01:07;;;;;;;3.55;3.35;;;;;;;;;;5024198;28;20210;-82
2021/03/16 05:03:51;;;;;;;4.13;3.28;;;;;;;;;;5022199;28;20666;-83
2021/03/16 05:06:39;;;;;;;5.55;4.53;;;;;;;;;;5021770;28;20154;-81
2021/03/16 05:09:23;;;;;;;5.20;3.72;;;;;;;;;;5021378;28;20228;-82
2021/03/16 05:12:14;;;;;;;9.57;5.18;;;;;;;;;;5023070;28;20202;-82
2021/03/16 05:15:02;;;;;;;4.78;4.35;;;;;;;;;;5024055;28;20171;-82
2021/03/16 05:17:47;;;;;;;4.03;3.10;;;;;;;;;;5020652;28;20164;-83
2021/03/16 05:20:32;;;;;;;6.32;4.05;;;;;;;;;;5023228;28;20254;-80
2021/03/16 05:23:16;;;;;;;7.88;3.70;;;;;;;;;;5023748;28;20251;-83
2021/03/16 05:26:01;;;;;;;6.55;4.40;;;;;;;;;;5020763;28;20175;-83
2021/03/16 05:28:52;;;;;;;5.53;3.75;;;;;;;;;;5037089;28;20549;-83
2021/03/16 05:31:37;;;;;;;3.92;3.63;;;;;;;;;;5036645;28;20218;-82
2021/03/16 05:34:27;;;;;;;5.80;4.18;;;;;;;;;;5029415;28;20180;-80
2021/03/16 05:37:12;;;;;;;2.80;2.50;;;;;;;;;;5043325;28;20186;-82
2021/03/16 05:39:57;;;;;;;4.35;3.95;;;;;;;;;;5025956;28;20215;-82
2021/03/16 05:42:48;;;;;;;7.03;3.80;;;;;;;;;;5021871;28;20596;-83
2021/03/16 05:45:33;;;;;;;4.95;3.60;;;;;;;;;;5036161;28;20170;-82
2021/03/16 05:48:18;;;;;;;3.38;3.08;;;;;;;;;;5034981;28;20230;-83
2021/03/16 05:51:10;;;;;;;4.50;3.70;;;;;;;;;;5037668;28;20206;-81
2021/03/16 05:53:54;;;;;;;4.80;3.20;;;;;;;;;;5035521;28;20592;-81
2021/03/16 05:56:41;;;;;;;5.78;3.60;;;;;;;;;;5035231;28;20534;-80
2021/03/16 05:59:27;;;;;;;5.88;4.13;;;;;;;;;;5035154;28;20163;-82
2021/03/16 06:02:12;;;;;;;6.20;3.30;;;;;;;;;;5023185;28;20197;-83
2021/03/16 06:05:05;;;;;;;7.10;3.92;;;;;;;;;;5023202;28;20176;-83
2021/03/16 06:07:53;;;;;;;4.18;3.78;;;;;;;;;;5021961;28;20183;-83
2021/03/16 06:10:47;;;;;;;3.58;3.38;;;;;;;;;;5022763;28;20254;-83
2021/03/16 06:13:32;;;;;;;6.65;4.72;;;;;;;;;;5012941;28;20195;-83
2021/03/16 06:16:17;;;;;;;3.35;3.15;;;;;;;;;;5002076;28;20179;-84
2021/03/16 06:19:02;;;;;;;10.80;5.00;;;;;;;;;;5005820;28;20215;-80
2021/03/16 06:21:57;;;;;;;3.80;3.50;;;;;;;;;;5004939;28;20251;-81
2021/03/16 06:24:46;;;;;;;4.15;3.53;;;;;;;;;;5008836;28;20171;-83
2021/03/16 06:27:30;;;;;;;6.05;4.25;;;;;;;;;;5020675;28;20163;-82
2021/03/16 06:30:24;;;;;;;9.05;3.58;;;;;;;;;;5020790;28;20228;-82
2021/03/16 06:33:19;;;;;;;9.00;3.35;;;;;;;;;;5042702;23;20234;-81
2021/03/16 06:36:05;;;;;;;6.22;4.10;;;;;;;;;;5015246;28;20168;-84
2021/03/16 06:38:50;;;;;;;5.60;4.30;;;;;;;;;;5017176;28;20195;-82
2021/03/16 06:41:36;;;;;;;5.00;4.50;;;;;;;;;;5033315;28;20254;-81
2021/03/16 06:44:22;;;;;;;6.40;4.15;;;;;;;;;;5021292;28;20211;-82
2021/03/16 06:47:13;;;;;;;7.00;4.72;;;;;;;;;;5016133;28;20228;-84
2021/03/16 06:49:58;;;;;;;6.38;4.00;;;;;;;;;;5030689;28;20171;-83
2021/03/16 06:52:48;;;;;;;5.10;3.30;;;;;;;;;;5022403;28;20190;-82
2021/03/16 06:55:33;;;;;;;4.00;3.60;;;;;;;;;;5015297;28;20203;-82
2021/03/16 06:58:21;;;;;;;6.00;4.50;;;;;;;;;;5025300;28;20183;-82
2021/03/16 07:01:10;;;;;;;10.10;4.55;;;;;;;;;;5005102;28;20680;-83
2021/03/16 07:03:54;;;;;;;3.90;3.13;;;;;;;;;;5022289;28;20220;-84
2021/03/16 07:06:40;;;;;;;4.72;3.75;;;;;;;;;;5018253;28;20163;-83
2021/03/16 07:09:25;;;;;;;3.40;3.10;;;;;;;;;;5022698;28;20199;-83
2021/03/16 07:12:11;;;;;;;4.63;3.10;;;;;;;;;;4996607;28;20203;-81
2021/03/16 07:14:55;;;;;;;4.70;3.67;;;;;;;;;;5007909;28;20195;-81
2021/03/16 07:17:42;;;;;;;4.05;3.70;;;;;;;;;;5027104;28;20163;-82
2021/03/16 07:20:29;;;;;;;7.75;4.05;;;;;;;;;;5025818;28;20283;-81
2021/03/16 07:23:15;;;;;;;6.10;4.22;;;;;;;;;;5014547;28;20241;-82
2021/03/16 07:26:00;;;;;;;6.03;3.30;;;;;;;;;;5033188;28;20183;-81
2021/03/16 07:28:45;;;;;;;5.50;3.58;;;;;;;;;;5019301;28;20179;-82
2021/03/16 07:31:34;;;;;;;4.10;3.80;;;;;;;;;;5032897;28;20202;-81
2021/03/16 07:34:19;;;;;;;3.47;3.15;;;;;;;;;;5021399;28;20179;-83
2021/03/16 07:37:07;;;;;;;6.50;3.60;;;;;;;;;;5024234;28;20179;-84
2021/03/16 07:39:51;;;;;;;4.38;3.85;;;;;;;;;;5020455;28;20223;-85
2021/03/16 07:42:37;;;;;;;4.57;3.95;;;;;;;;;;5015152;28;20195;-83
2021/03/16 07:45:30;;;;;;;4.38;3.40;;;;;;;;;;5002660;28;20183;-82
2021/03/16 07:48:20;;;;;;;5.68;4.22;;;;;;;;;;5015464;28;20160;-83
2021/03/16 07:51:09;;;;;;;6.22;4.75;;;;;;;;;;5001333;28;20179;-83
2021/03/16 07:53:58;;;;;;;4.32;4.03;;;;;;;;;;5014583;28;20214;-82
2021/03/16 07:56:43;;;;;;;4.50;4.10;;;;;;;;;;4999039;28;20257;-83
2021/03/16 07:59:32;;;;;;;3.40;3.15;;;;;;;;;;5005598;28;20497;-83
2021/03/16 08:02:25;;;;;;;4.38;3.60;;;;;;;;;;5003558;28;20203;-83
2021/03/16 08:05:14;;;;;;;6.35;3.97;;;;;;;;;;5004528;28;20682;-82
2021/03/16 08:07:59;;;;;;;6.10;3.75;;;;;;;;;;4989976;28;20219;-82
2021/03/16 08:10:44;;;;;;;4.30;3.90;;;;;;;;;;5004707;28;20184;-81
2021/03/16 08:13:28;;;;;;;6.20;4.18;;;;;;;;;;5005395;28;20164;-81
2021/03/16 08:16:16;;;;;;;6.38;4.97;;;;;;;;;;5004842;28;20215;-83
2021/03/16 08:19:27;;;;;;;5.43;3.47;;;;;;;;;;4988996;28;20180;-83
2021/03/16 08:22:19;;;;;;;4.63;3.65;;;;;;;;;;4977332;28;20296;-83
2021/03/16 08:25:05;;;;;;;4.80;3.83;;;;;;;;;;5007810;28;20168;-83
2021/03/16 08:27:50;;;;;;;5.25;3.35;;;;;;;;;;5007568;28;20199;-82
2021/03/16 08:30:36;;;;;;;7.22;3.55;;;;;;;;;;5006945;28;20233;-82
2021/03/16 08:33:21;;;;;;;2.60;2.40;;;;;;;;;;5008253;28;20211;-81
2021/03/16 08:36:06;;;;;;;8.40;3.92;;;;;;;;;;5006545;28;20167;-82
2021/03/16 08:38:53;;;;;;;5.28;3.60;;;;;;;;;;5006146;28;20225;-82
2021/03/16 08:41:38;;;;;;;5.63;4.00;;;;;;;;;;5010218;28;20239;-83
2021/03/16 08:44:23;;;;;;;4.30;3.90;;;;;;;;;;5007806;28;20164;-83
2021/03/16 08:47:09;;;;;;;4.57;4.03;;;;;;;;;;5009942;28;20249;-83
2021/03/16 08:49:55;;;;;;;4.78;4.30;;;;;;;;;;4992950;28;20204;-84
2021/03/16 08:52:40;;;;;;;10.38;4.65;;;;;;;;;;5006397;28;20299;-83
2021/03/16 08:55:26;;;;;;;4.30;3.60;;;;;;;;;;5009075;28;20183;-82
2021/03/16 08:58:18;;;;;;;4.45;4.05;;;;;;;;;;4994731;28;20737;-83
2021/03/16 09:01:03;;;;;;;3.95;3.63;;;;;;;;;;5008443;28;20203;-83
2021/03/16 09:03:48;;;;;;;7.75;4.10;;;;;;;;;;5007575;28;20619;-84
2021/03/16 09:06:33;;;;;;;3.65;3.22;;;;;;;;;;5007480;28;20168;-83
2021/03/16 09:09:23;;;;;;;5.57;3.97;;;;;;;;;;4992984;28;20168;-84
2021/03/16 09:12:09;;;;;;;9.80;6.35;;;;;;;;;;4993768;28;20215;-83
2021/03/16 09:14:54;;;;;;;3.88;3.47;;;;;;;;;;5008210;28;20191;-83
2021/03/16 09:17:40;;;;;;;3.42;3.13;;;;;;;;;;5010232;28;20168;-84
2021/03/16 09:20:32;;;;;;;4.93;4.43;;;;;;;;;;4992921;28;20262;-85
2021/03/16 09:23:18;;;;;;;5.15;3.90;;;;;;;;;;5006959;28;20212;-84
2021/03/16 09:26:02;;;;;;;4.80;2.80;;;;;;;;;;5009965;28;20164;-83
2021/03/16 09:28:48;;;;;;;3.25;2.95;;;;;;;;;;4992568;28;20184;-83
2021/03/16 09:31:32;;;;;;;6.95;3.08;;;;;;;;;;5006584;28;20235;-83
2021/03/16 09:34:17;;;;;;;10.60;3.03;;;;;;;;;;4994231;28;20199;-83
2021/03/16 09:37:04;;;;;;;5.60;3.75;;;;;;;;;;5008625;28;20175;-83
2021/03/16 09:39:30;;;;;;;4.50;3.30;;;;;;;;;;5007692;28;20190;-82
2021/03/16 09:42:42;;;;;;;3.65;3.13;;;;;;;;;;5006433;28;20275;-83
2021/03/16 09:45:14;;;;;;;3.13;2.45;;;;;;;;;;4997524;28;20169;-83
2021/03/16 09:47:41;;;;;;;6.93;3.88;;;;;;;;;;5015500;28;20173;-83
2021/03/16 09:50:09;;;;;;;3.50;3.20;;;;;;;;;;5014429;28;20184;-82
2021/03/16 09:52:35;;;;;;;3.95;2.95;;;;;;;;;;5013639;28;20228;-84
2021/03/16 09:55:02;;;;;;;3.75;2.70;;;;;;;;;;5011265;28;20196;-85
2021/03/16 09:57:32;;;;;;;5.18;3.97;;;;;;;;;;5013535;28;20199;-84
2021/03/16 09:59:59;;;;;;;2.83;2.53;;;;;;;;;;5012295;28;20196;-83
2021/03/16 10:02:33;;;;;;;5.30;2.47;;;;;;;;;;5006113;28;20517;-84
2021/03/16 10:05:07;;;;;;;3.35;2.30;;;;;;;;;;5004425;28;20207;-85
2021/03/16 10:07:33;;;;;;;2.55;2.15;;;;;;;;;;4989714;28;20186;-84
2021/03/16 10:10:17;;;;;;;4.67;2.10;;;;;;;;;;4990624;28;20310;-83
2021/03/16 10:13:12;;;;;;;8.70;2.70;;;;;;;;;;4979846;28;20439;-83
2021/03/16 10:15:39;;;;;;;4.53;2.93;;;;;;;;;;4981447;28;20790;-84
2021/03/16 10:18:07;;;;;;;3.67;2.67;;;;;;;;;;4999371;28;20504;-83
2021/03/16 10:20:38;;;;;;;3.80;2.77;;;;;;;;;;5015075;28;20235;-84
2021/03/16 10:23:05;;;;;;;4.23;3.23;;;;;;;;;;4997324;28;20466;-85
2021/03/16 10:25:33;;;;;;;9.60;3.07;;;;;;;;;;5010214;28;20434;-84
2021/03/16 10:28:01;;;;;;;3.30;2.37;;;;;;;;;;4988395;28;20423;-85
2021/03/16 10:30:30;;;;;;;3.60;2.43;;;;;;;;;;5007209;28;20403;-83
2021/03/16 10:32:56;;;;;;;2.93;2.40;;;;;;;;;;5003950;28;20451;-85
2021/03/16 10:35:23;;;;;;;4.50;2.83;;;;;;;;;;5004325;28;20439;-82
2021/03/16 10:37:49;;;;;;;16.10;9.77;;;;;;;;;;5007106;28;20240;-84
2021/03/16 10:40:16;;;;;;;2.80;1.98;;;;;;;;;;4988216;28;20450;-84
2021/03/16 10:42:42;;;;;;;10.60;5.10;;;;;;;;;;4987347;28;20184;-84
2021/03/16 10:45:09;;;;;;;1.90;1.80;;;;;;;;;;5005078;28;20439;-84
2021/03/16 10:47:35;;;;;;;3.50;2.43;;;;;;;;;;5005946;28;20404;-83
2021/03/16 10:50:01;;;;;;;4.00;2.23;;;;;;;;;;5005965;28;20473;-83
2021/03/16 10:52:28;;;;;;;3.30;2.60;;;;;;;;;;4989838;28;20913;-84
2021/03/16 10:54:57;;;;;;;2.53;2.33;;;;;;;;;;4989927;28;20435;-83
2021/03/16 10:57:23;;;;;;;4.00;2.73;;;;;;;;;;5011642;28;20435;-82
2021/03/16 10:59:49;;;;;;;3.00;2.30;;;;;;;;;;4998091;28;20534;-83
2021/03/16 11:02:16;;;;;;;7.90;4.33;;;;;;;;;;4981697;28;20455;-83
2021/03/16 11:04:43;;;;;;;4.53;2.30;;;;;;;;;;4990399;28;20419;-84
2021/03/16 11:07:09;;;;;;;6.30;2.20;;;;;;;;;;4974380;28;20447;-82
2021/03/16 11:09:36;;;;;;;1.87;1.77;;;;;;;;;;5005368;28;20443;-83
2021/03/16 11:12:02;;;;;;;3.27;2.47;;;;;;;;;;4985563;28;20438;-83
2021/03/16 11:14:28;;;;;;;3.00;1.97;;;;;;;;;;4969893;28;20505;-84
2021/03/16 11:16:55;;;;;;;2.73;2.13;;;;;;;;;;4986076;28;20404;-84
2021/03/16 11:19:21;;;;;;;2.17;2.07;;;;;;;;;;4986625;28;20412;-83
2021/03/16 11:21:47;;;;;;;3.63;2.53;;;;;;;;;;5004085;28;20447;-83
2021/03/16 11:24:14;;;;;;;4.70;2.57;;;;;;;;;;4987067;28;20431;-83
2021/03/16 11:26:40;;;;;;;3.07;1.93;;;;;;;;;;4986971;28;20439;-83
2021/03/16 11:29:07;;;;;;;3.83;2.70;;;;;;;;;;4987274;28;20391;-84
2021/03/16 11:31:33;;;;;;;2.80;2.37;;;;;;;;;;5001857;28;20473;-84
2021/03/16 11:34:18;;;;;;;2.27;1.97;;;;;;;;;;5016582;28;20487;-84
2021/03/16 11:37:02;;;;;;;4.23;2.17;;;;;;;;;;5025156;28;20409;-84
2021/03/16 11:39:47;;;;;;;3.35;2.88;;;;;;;;;;5024036;28;20557;-84
2021/03/16 11:42:32;;;;;;;3.20;2.70;;;;;;;;;;5009702;28;20194;-84
2021/03/16 11:45:17;;;;;;;2.80;1.80;;;;;;;;;;5010071;28;20926;-84
2021/03/16 11:48:02;;;;;;;2.37;1.53;;;;;;;;;;5011131;28;20379;-83
2021/03/16 11:50:46;;;;;;;2.60;2.40;;;;;;;;;;5010232;28;20426;-84
2021/03/16 11:53:31;;;;;;;2.87;2.20;;;;;;;;;;5028748;28;20511;-84
2021/03/16 11:56:16;;;;;;;3.57;2.33;;;;;;;;;;5027986;28;20393;-83
2021/03/16 11:59:01;;;;;;;3.53;2.30;;;;;;;;;;5030888;28;20390;-83
2021/03/16 12:01:46;;;;;;;4.50;3.40;;;;;;;;;;5012459;28;20457;-84
2021/03/16 12:04:31;;;;;;;4.83;3.87;;;;;;;;;;5013788;28;20386;-84
2021/03/16 12:07:15;;;;;;;6.90;3.97;;;;;;;;;;5028110;28;20382;-83
2021/03/16 12:10:00;;;;;;;8.10;4.20;;;;;;;;;;5014417;28;20390;-84
2021/03/16 12:12:45;;;;;;;9.70;4.23;;;;;;;;;;5026686;28;20529;-84
2021/03/16 12:15:30;;;;;;;4.80;3.87;;;;;;;;;;5028373;28;20389;-85
2021/03/16 12:18:15;;;;;;;5.70;3.90;;;;;;;;;;5014113;28;20493;-83
2021/03/16 12:21:00;;;;;;;6.20;4.13;;;;;;;;;;5013917;28;20453;-85
2021/03/16 12:23:45;;;;;;;6.03;4.40;;;;;;;;;;5013892;28;20418;-84
2021/03/16 12:26:30;;;;;;;6.47;3.77;;;;;;;;;;5031110;28;20414;-85
2021/03/16 12:29:14;;;;;;;7.13;4.87;;;;;;;;;;5029815;28;20382;-83
2021/03/16 12:31:59;;;;;;;5.33;4.03;;;;;;;;;;5089913;23;20529;-85
2021/03/16 12:34:44;;;;;;;4.33;3.93;;;;;;;;;;5010189;28;20419;-83
2021/03/16 12:37:29;;;;;;;5.07;3.60;;;;;;;;;;5008417;28;20396;-84
2021/03/16 12:40:14;;;;;;;5.13;4.43;;;;;;;;;;5008558;28;20439;-86
2021/03/16 12:42:59;;;;;;;6.83;4.30;;;;;;;;;;5009380;28;20507;-83
2021/03/16 12:45:46;;;;;;;5.70;4.87;;;;;;;;;;5011026;28;20407;-84
2021/03/16 12:57:00;;;;;;;;;;;;;;;;;;;;;
2021/03/16 12:59:47;;;;;;;4.00;3.50;;;;;;;;;;5015866;28;20471;-85
2021/03/16 13:02:32;;;;;;;2.90;2.43;;;;;;;;;;5008400;28;20829;-82
2021/03/16 13:05:17;;;;;;;3.10;2.80;;;;;;;;;;4995013;28;20409;-85
2021/03/16 13:08:05;;;;;;;5.60;3.00;;;;;;;;;;4993457;28;20436;-85
2021/03/16 13:10:52;;;;;;;6.50;2.77;;;;;;;;;;4991103;28;20436;-84
2021/03/16 13:13:37;;;;;;;7.00;3.20;;;;;;;;;;4987160;28;20793;-84
2021/03/16 13:16:25;;;;;;;2.37;2.17;;;;;;;;;;4986038;28;20401;-85
2021/03/16 13:19:10;;;;;;;2.63;2.43;;;;;;;;;;4984408;28;20400;-84
2021/03/16 13:21:57;;;;;;;2.20;2.00;;;;;;;;;;4983132;28;20400;-83
2021/03/16 13:24:42;;;;;;;2.60;1.87;;;;;;;;;;4982059;28;20424;-84
2021/03/16 13:27:30;;;;;;;2.30;1.80;;;;;;;;;;4982974;28;20377;-84
2021/03/16 13:30:18;;;;;;;5.10;2.87;;;;;;;;;;4984005;28;20387;-87
2021/03/16 13:33:05;;;;;;;3.33;2.30;;;;;;;;;;4983729;28;20427;-85
2021/03/16 13:35:50;;;;;;;3.50;2.73;;;;;;;;;;4984362;28;20381;-83
2021/03/16 13:38:35;;;;;;;2.47;2.13;;;;;;;;;;4983006;28;20428;-83
2021/03/16 13:41:21;;;;;;;2.43;1.93;;;;;;;;;;4984860;28;20436;-85
2021/03/16 13:44:06;;;;;;;2.13;1.93;;;;;;;;;;4985142;28;20424;-84
2021/03/16 13:47:00;;;;;;;4.70;2.77;;;;;;;;;;4987684;28;20405;-83
2021/03/16 13:49:46;;;;;;;4.40;2.07;;;;;;;;;;4999178;28;20385;-85
2021/03/16 13:52:34;;;;;;;3.57;2.73;;;;;;;;;;4999578;28;20464;-85
2021/03/16 13:55:19;;;;;;;4.23;3.23;;;;;;;;;;4997983;28;20456;-84
2021/03/16 13:58:07;;;;;;;3.50;2.03;;;;;;;;;;4990183;28;20805;-84
2021/03/16 14:00:52;;;;;;;8.77;3.30;;;;;;;;;;4986606;28;20447;-85
2021/03/16 14:03:55;;;;;;;2.33;2.10;;;;;;;;;;4989029;28;20767;-85
2021/03/16 14:06:41;;;;;;;3.63;3.23;;;;;;;;;;4985767;28;20437;-84
2021/03/16 14:09:26;;;;;;;4.80;3.20;;;;;;;;;;4983993;28;20416;-85
2021/03/16 14:12:11;;;;;;;5.33;2.37;;;;;;;;;;4985243;28;20471;-84
2021/03/16 14:14:57;;;;;;;4.97;2.60;;;;;;;;;;4985187;28;20767;-84
2021/03/16 14:17:52;;;;;;;3.00;2.80;;;;;;;;;;4984453;28;20433;-85
2021/03/16 14:20:37;;;;;;;4.83;3.27;;;;;;;;;;4982574;28;20444;-85
2021/03/16 14:23:24;;;;;;;4.27;2.97;;;;;;;;;;4984884;28;20428;-83
2021/03/16 14:26:12;;;;;;;5.10;2.97;;;;;;;;;;4981268;28;20440;-84
2021/03/16 14:28:57;;;;;;;2.23;2.03;;;;;;;;;;4985314;28;20908;-84
2021/03/16 14:31:46;;;;;;;2.97;2.10;;;;;;;;;;4986578;28;20396;-85
2021/03/16 14:35:31;;;;;;;3.60;2.30;;;;;;;;;;4989298;28;20443;-86
2021/03/16 14:38:17;;;;;;;3.67;2.50;;;;;;;;;;4989969;28;20408;-84
2021/03/16 14:41:02;;;;;;;5.80;2.50;;;;;;;;;;4984162;28;20439;-85
2021/03/16 14:43:48;;;;;;;3.10;2.13;;;;;;;;;;4984760;28;20483;-86
2021/03/16 14:46:33;;;;;;;3.50;3.00;;;;;;;;;;4985830;28;20384;-83
2021/03/16 14:49:18;;;;;;;2.70;2.10;;;;;;;;;;4985354;28;20602;-87
2021/03/16 14:52:04;;;;;;;3.87;2.67;;;;;;;;;;4986309;28;20391;-84
2021/03/16 14:54:49;;;;;;;6.93;3.30;;;;;;;;;;4986150;28;20475;-85
2021/03/16 14:57:33;;;;;;;2.40;1.83;;;;;;;;;;4984724;28;20393;-85
2021/03/16 15:00:20;;;;;;;4.93;2.33;;;;;;;;;;4986614;28;20556;-84
2021/03/16 15:03:05;;;;;;;3.00;2.20;;;;;;;;;;4986819;28;20444;-84
2021/03/16 15:05:50;;;;;;;2.33;2.13;;;;;;;;;;4987764;28;20492;-81
2021/03/16 15:08:35;;;;;;;3.70;2.37;;;;;;;;;;4986006;28;20412;-86
2021/03/16 15:11:20;;;;;;;5.80;2.37;;;;;;;;;;4986497;28;20392;-84
2021/03/16 15:14:05;;;;;;;4.27;3.00;;;;;;;;;;4987631;28;20431;-85
2021/03/16 15:16:52;;;;;;;4.77;3.30;;;;;;;;;;4986838;28;20412;-84
2021/03/16 15:19:37;;;;;;;3.20;2.70;;;;;;;;;;4984979;28;20397;-84
2021/03/16 15:22:22;;;;;;;2.63;2.40;;;;;;;;;;4982684;28;20455;-84
2021/03/16 15:25:07;;;;;;;2.63;2.13;;;;;;;;;;4988561;28;20443;-85
2021/03/16 15:27:53;;;;;;;2.30;2.10;;;;;;;;;;4996673;28;20468;-85
2021/03/16 15:30:37;;;;;;;2.27;1.70;;;;;;;;;;4998921;28;20383;-85
2021/03/16 15:33:25;;;;;;;2.97;2.77;;;;;;;;;;5001927;28;20512;-84
2021/03/16 15:36:10;;;;;;;3.57;2.57;;;;;;;;;;4996155;28;20448;-83
2021/03/16 15:39:02;;;;;;;2.37;2.17;;;;;;;;;;4989360;28;20404;-86
2021/03/16 15:41:47;;;;;;;5.10;2.47;;;;;;;;;;4987879;28;20979;-84
2021/03/16 15:44:37;;;;;;;2.70;2.22;;;;;;;;;;4995615;28;20392;-83
2021/03/16 15:47:25;;;;;;;2.63;2.43;;;;;;;;;;4988123;28;20169;-84
2021/03/16 15:50:10;;;;;;;2.80;2.40;;;;;;;;;;4988557;28;20388;-85
2021/03/16 15:52:55;;;;;;;2.10;1.70;;;;;;;;;;4997764;28;20463;-85
2021/03/16 15:55:40;;;;;;;2.17;1.67;;;;;;;;;;4999532;28;20515;-82
2021/03/16 15:58:25;;;;;;;2.90;2.20;;;;;;;;;;4991132;28;20396;-85
2021/03/16 16:01:10;;;;;;;4.00;2.70;;;;;;;;;;4988180;28;20471;-86
2021/03/16 16:03:56;;;;;;;2.37;2.17;;;;;;;;;;4984358;28;20475;-85
2021/03/16 16:06:41;;;;;;;2.63;2.37;;;;;;;;;;4986597;28;20412;-85
2021/03/16 16:09:26;;;;;;;3.30;2.47;;;;;;;;;;4985752;28;20408;-84
2021/03/16 16:12:11;;;;;;;2.57;1.63;;;;;;;;;;4985847;28;20431;-83
2021/03/16 16:14:56;;;;;;;3.40;2.20;;;;;;;;;;4987773;28;20420;-82
2021/03/16 16:17:43;;;;;;;1.77;1.63;;;;;;;;;;4987360;28;20455;-85
2021/03/16 16:20:28;;;;;;;2.23;2.03;;;;;;;;;;4986060;28;20446;-82